Airfield :
LOGIN :

Register | Disclaimer

   EN    FR    IT 

 










Legend :    VFR   Marginal VFR   IFR   Intensive IFR   Very Intensive IFR
Visi :
Ceiling :
>= 8 km
>= 3000ft
5 to 8 km
1000 to 3000 ft
1500m to 5 km
500 to 1000 ft
800 to 1500m
200 to 500 ft
< 800m
< 200 ft
Symbols :   Thunderstorms  Fog  Heavy snow  Heavy precipitations  Wind > 20 kt
SIGMETs :     Misc.  Thunderstorms  Icing  Turbulence  Mountain Waves  Volcanic Ashes






- Airport Elevation : 240 ft
- IATA code : VLC


LEVC - Valencia Manises

CURRENT METAR :
  • 241300Z 33013KT 300V360 9999 BKN060 17/M05 Q1010 NOSIG

EXPIRED METARs :
  • 241230Z 28015KT 9999 SCT060 16/M04 Q1010 NOSIG
  • 241200Z 29016KT 250V320 9999 FEW035 SCT060 15/M03 Q1010 NOSIG
  • 241130Z 29016G26KT 260V330 9999 FEW035 SCT060 16/M02 Q1010 NOSIG
  • 241100Z 28020G31KT 9999 FEW035 SCT060 14/M02 Q1010 NOSIG
  • 241030Z 29020KT 260V320 9999 FEW035 SCT050 15/M01 Q1010 NOSIG
  • 241000Z 29017KT 260V320 9999 FEW035 SCT050 14/M01 Q1010 NOSIG
  • 240930Z 28019KT 250V320 9999 FEW035 13/M00 Q1010 NOSIG
  • 240900Z 29015KT 9999 FEW035 13/00 Q1010 NOSIG
  • 240830Z 27010KT 240V300 9999 FEW035 12/00 Q1010 NOSIG

TAF TAF LEVC
Valid from the 24 at 12:00 until the 25 at 12:00 UTC


241100Z 2412/2512 30016KT 9999 FEW040 TX18/2413Z TN10/2506Z
TEMPO 2412/2418 30017G27KT
TEMPO 2419/2504 31005KT
BECMG 2504/2506 08008KT



MET'MAP, your aeronautical weather chart ! - Copyright ORBIFLY December 2007 - Disclaimer

ORBIFLY MET'MAP TEAM :

Programming & Development : Alexandra Zaïnal
Original concept : Baudouin d'Aumeries
Technical & hardware support : Manuel Goepfert
Assistance : Marc-Olivier Méhu




SOURCES & CREDITS :

   NOAA